createdAt,value
2023-04-13T00:04:15.483Z,13.02
2023-04-13T00:09:20.323Z,13.18
2023-04-13T00:14:27.642Z,12.73
2023-04-13T00:19:31.058Z,12.75
2023-04-13T00:24:37.173Z,12.40
2023-04-13T00:29:40.917Z,13.07
2023-04-13T00:34:44.387Z,13.38
2023-04-13T00:39:49.381Z,12.80
2023-04-13T00:49:57.070Z,13.32
2023-04-13T00:55:04.075Z,13.18
2023-04-13T01:00:10.211Z,13.90
2023-04-13T01:05:16.474Z,12.95
2023-04-13T01:10:27.975Z,12.60
2023-04-13T01:15:37.268Z,11.48
2023-04-13T01:20:45.708Z,13.07
2023-04-13T01:25:56.644Z,12.63
2023-04-13T01:31:05.358Z,12.48
2023-04-13T01:36:11.538Z,12.20
2023-04-13T01:41:15.686Z,11.50
2023-04-13T01:46:23.854Z,12.33
2023-04-13T01:51:30.702Z,12.55
2023-04-13T01:56:34.707Z,11.60
2023-04-13T02:01:40.806Z,11.97
2023-04-13T02:06:44.348Z,12.52
2023-04-13T02:11:48.130Z,11.65
2023-04-13T02:16:53.058Z,11.55
2023-04-13T02:26:59.697Z,12.60
2023-04-13T02:32:04.748Z,12.27
2023-04-13T02:37:09.553Z,13.00
2023-04-13T02:42:13.012Z,12.45
2023-04-13T02:47:18.104Z,12.65
2023-04-13T02:52:22.104Z,12.32
2023-04-13T02:57:25.582Z,13.00
2023-04-13T03:02:31.342Z,12.90
2023-04-13T03:07:36.433Z,12.48
2023-04-13T03:17:44.828Z,11.40
2023-04-13T03:22:48.334Z,12.95
2023-04-13T03:27:53.474Z,12.05
2023-04-13T03:32:58.326Z,11.93
2023-04-13T03:43:04.957Z,12.23
2023-04-13T03:48:11.085Z,11.88
2023-04-13T03:53:14.498Z,12.55
2023-04-13T03:58:18.337Z,12.45
2023-04-13T04:03:25.608Z,12.05
2023-04-13T04:08:29.376Z,12.18
2023-04-13T04:13:32.905Z,11.68
2023-04-13T04:18:37.758Z,11.88
2023-04-13T04:28:44.690Z,11.30
2023-04-13T04:33:51.900Z,11.48
2023-04-13T04:38:58.188Z,11.02
2023-04-13T04:44:02.967Z,11.18
2023-04-13T04:49:07.848Z,12.05
2023-04-13T04:54:11.626Z,11.13
2023-04-13T04:59:15.375Z,11.33
2023-04-13T05:04:20.262Z,10.80
2023-04-13T05:09:23.857Z,10.63
2023-04-13T05:14:27.449Z,10.97
2023-04-13T05:19:35.450Z,10.57
2023-04-13T05:24:40.454Z,10.50
2023-04-13T05:29:46.282Z,10.45
2023-04-13T05:34:52.791Z,10.98
2023-04-13T05:39:56.620Z,11.13
2023-04-13T05:45:00.321Z,10.25
2023-04-13T05:50:05.504Z,9.77
2023-04-13T05:55:09.488Z,10.43
2023-04-13T06:00:14.252Z,10.55
2023-04-13T06:05:19.911Z,9.63
2023-04-13T06:10:23.596Z,9.43
2023-04-13T06:15:27.536Z,9.43
2023-04-13T06:20:33.694Z,9.40
2023-04-13T06:25:38.723Z,8.85
2023-04-13T06:30:42.358Z,9.40
2023-04-13T06:35:47.445Z,9.15
2023-04-13T06:40:51.181Z,9.10
2023-04-13T06:46:00.294Z,9.20
2023-04-13T06:51:05.626Z,9.50
2023-04-13T06:56:10.085Z,9.75
2023-04-13T07:01:13.781Z,9.52
2023-04-13T07:06:18.967Z,8.82
2023-04-13T07:11:22.500Z,9.30
2023-04-13T07:16:26.338Z,8.88
2023-04-13T07:21:33.937Z,7.97
2023-04-13T07:26:37.400Z,7.88
2023-04-13T07:31:41.159Z,7.53
2023-04-13T07:36:47.163Z,7.03
2023-04-13T07:41:50.882Z,5.82
2023-04-13T07:46:55.934Z,5.68
2023-04-13T07:52:01.469Z,4.15
2023-04-13T07:57:05.122Z,4.18
2023-04-13T08:02:08.819Z,3.97
2023-04-13T08:07:14.014Z,3.63
2023-04-13T08:12:17.980Z,3.70
2023-04-13T08:17:21.914Z,3.65
2023-04-13T08:22:27.238Z,4.30
2023-04-13T08:27:30.720Z,3.72
2023-04-13T08:32:34.529Z,3.75
2023-04-13T08:37:39.967Z,3.38
2023-04-13T08:42:43.661Z,3.53
2023-04-13T08:52:51.852Z,3.80
2023-04-13T08:57:59.371Z,3.50
2023-04-13T09:03:09.570Z,3.80
2023-04-13T09:08:17.383Z,3.60
2023-04-13T09:13:21.222Z,3.33
2023-04-13T09:18:24.980Z,3.35
2023-04-13T09:23:29.875Z,3.17
2023-04-13T09:28:33.402Z,2.65
2023-04-13T09:33:46.387Z,3.08
2023-04-13T09:38:55.322Z,3.25
2023-04-13T09:43:59.390Z,3.00
2023-04-13T09:49:05.056Z,2.70
2023-04-13T09:54:10.057Z,3.08
2023-04-13T09:59:14.568Z,2.63
2023-04-13T10:04:18.763Z,2.42
2023-04-13T10:09:26.703Z,2.70
2023-04-13T10:14:39.340Z,2.70
2023-04-13T10:19:47.190Z,2.60
2023-04-13T10:24:53.762Z,2.55
2023-04-13T10:29:57.754Z,2.60
2023-04-13T10:35:11.877Z,2.65
2023-04-13T10:40:17.244Z,2.50
2023-04-13T10:45:24.131Z,2.55
2023-04-13T10:50:28.679Z,2.53
2023-04-13T10:55:34.270Z,2.10
2023-04-13T11:00:46.196Z,2.85
2023-04-13T11:05:58.497Z,2.60
2023-04-13T11:11:03.415Z,2.15
2023-04-13T11:16:07.728Z,2.33
2023-04-13T11:21:16.453Z,2.13
2023-04-13T11:26:33.003Z,2.25
2023-04-13T11:31:39.157Z,2.67
2023-04-13T11:36:46.020Z,2.17
2023-04-13T11:41:51.064Z,2.22
2023-04-13T11:46:56.614Z,2.38
2023-04-13T11:52:01.312Z,2.42
2023-04-13T11:57:06.420Z,2.75
2023-04-13T12:02:20.814Z,2.30
2023-04-13T12:07:26.964Z,2.40
2023-04-13T12:12:51.560Z,2.80
2023-04-13T12:18:02.362Z,2.60
2023-04-13T12:23:22.784Z,2.92
2023-04-13T12:28:34.136Z,2.50
2023-04-13T12:33:38.629Z,2.72
2023-04-13T12:38:42.744Z,2.30
2023-04-13T12:43:47.601Z,2.33
2023-04-13T12:48:51.558Z,2.00
2023-04-13T12:53:54.967Z,1.80
2023-04-13T12:59:00.852Z,2.28
2023-04-13T13:04:05.764Z,2.10
2023-04-13T13:14:14.651Z,1.90
2023-04-13T13:19:18.238Z,1.98
2023-04-13T13:24:21.799Z,2.10
2023-04-13T13:29:33.232Z,2.80
2023-04-13T13:34:36.879Z,2.30
2023-04-13T13:39:41.232Z,2.30
2023-04-13T13:44:46.461Z,2.55
2023-04-13T13:49:50.110Z,2.55
2023-04-13T13:54:54.754Z,2.50
2023-04-13T14:00:00.329Z,2.42
2023-04-13T14:05:04.393Z,2.55
2023-04-13T14:10:09.321Z,2.63
2023-04-13T14:15:15.081Z,2.58
2023-04-13T14:20:18.752Z,2.30
2023-04-13T14:25:22.428Z,2.53
2023-04-13T14:30:28.302Z,2.30
2023-04-13T14:35:32.187Z,3.05
2023-04-13T14:40:36.138Z,2.28
2023-04-13T14:45:41.192Z,2.55
2023-04-13T14:50:44.661Z,2.25
2023-04-13T14:55:48.249Z,2.80
2023-04-13T15:00:53.594Z,2.20
2023-04-13T15:06:03.502Z,2.33
2023-04-13T15:11:08.578Z,2.20
2023-04-13T15:16:13.754Z,2.20
2023-04-13T15:21:17.404Z,1.92
2023-04-13T15:26:21.853Z,1.73
2023-04-13T15:31:27.220Z,2.13
2023-04-13T15:36:30.723Z,2.13
2023-04-13T15:41:34.146Z,1.80
2023-04-13T15:46:40.447Z,1.73
2023-04-13T15:51:43.970Z,1.85
2023-04-13T15:56:47.588Z,1.77
2023-04-13T16:01:52.741Z,1.90
2023-04-13T16:07:12.109Z,2.13
2023-04-13T16:12:17.727Z,1.90
2023-04-13T16:17:31.021Z,1.60
2023-04-13T16:22:36.456Z,1.95
2023-04-13T16:27:41.703Z,1.75
2023-04-13T16:32:47.613Z,2.00
2023-04-13T16:37:51.253Z,2.30
2023-04-13T16:42:54.702Z,2.20
2023-04-13T16:47:59.736Z,2.20
2023-04-13T16:53:03.434Z,2.38
2023-04-13T16:58:07.647Z,2.75
2023-04-13T17:03:12.681Z,2.65
2023-04-13T17:08:17.057Z,2.60
2023-04-13T17:13:20.604Z,2.85
2023-04-13T17:18:25.973Z,2.85
2023-04-13T17:23:29.573Z,2.38
2023-04-13T17:28:33.273Z,3.45
2023-04-13T17:33:38.126Z,3.15
2023-04-13T17:43:44.867Z,2.47
2023-04-13T17:48:49.776Z,2.38
2023-04-13T17:58:56.600Z,2.35
2023-04-13T18:04:01.948Z,2.67
2023-04-13T18:09:05.724Z,2.25
2023-04-13T18:14:10.784Z,2.25
2023-04-13T18:19:15.846Z,1.90
2023-04-13T18:24:19.443Z,1.70
2023-04-13T18:29:23.229Z,2.08
2023-04-13T18:34:34.395Z,1.75
2023-04-13T18:39:39.639Z,1.77
2023-04-13T18:44:43.164Z,1.87
2023-04-13T18:49:47.978Z,2.00
2023-04-13T18:59:55.161Z,2.40
2023-04-13T19:05:00.073Z,1.88
2023-04-13T19:15:08.094Z,1.60
2023-04-13T19:20:13.472Z,1.88
2023-04-13T19:25:16.973Z,1.50
2023-04-13T19:30:21.018Z,1.88
2023-04-13T19:35:26.513Z,1.73
2023-04-13T19:40:30.138Z,1.60
2023-04-13T19:45:33.579Z,1.65
2023-04-13T19:50:38.464Z,1.38
2023-04-13T20:00:47.642Z,1.58
2023-04-13T20:05:52.837Z,1.80
2023-04-13T20:10:57.980Z,1.63
2023-04-13T20:16:03.254Z,1.80
2023-04-13T20:21:08.420Z,1.50
2023-04-13T20:26:11.894Z,1.60
2023-04-13T20:31:15.852Z,1.40
2023-04-13T20:36:21.814Z,1.50
2023-04-13T20:41:27.271Z,1.33
2023-04-13T20:46:34.634Z,1.63
2023-04-13T20:51:40.136Z,1.35
2023-04-13T21:01:49.092Z,1.30
2023-04-13T21:06:54.265Z,1.45
2023-04-13T21:11:58.138Z,1.40
2023-04-13T21:17:01.726Z,1.60
2023-04-13T21:22:06.738Z,1.30
2023-04-13T21:32:14.060Z,1.52
2023-04-13T21:37:19.206Z,1.27
2023-04-13T21:47:26.445Z,1.17
2023-04-13T21:52:31.432Z,1.48
2023-04-13T22:02:38.412Z,1.35
2023-04-13T22:07:43.657Z,1.13
2023-04-13T22:12:48.062Z,1.30
2023-04-13T22:17:51.722Z,1.13
2023-04-13T22:22:56.592Z,1.13
2023-04-13T22:28:00.085Z,1.35
2023-04-13T22:33:03.671Z,1.13
2023-04-13T22:38:08.706Z,1.40
2023-04-13T22:48:15.515Z,1.50
2023-04-13T22:53:20.419Z,1.20
2023-04-13T22:58:23.900Z,1.30
2023-04-13T23:03:27.878Z,1.23
2023-04-13T23:08:33.055Z,1.60
2023-04-13T23:13:36.972Z,1.70
2023-04-13T23:18:40.494Z,2.00
2023-04-13T23:23:45.594Z,1.48
2023-04-13T23:28:49.105Z,1.60
2023-04-13T23:33:53.918Z,1.70
2023-04-13T23:39:00.161Z,2.10
2023-04-13T23:44:03.881Z,1.60
2023-04-13T23:49:07.682Z,2.00
2023-04-13T23:54:12.782Z,2.00
2023-04-13T23:59:16.213Z,2.40
